www.cux-wetter.de
Wetterdaten: Mittwoch, 17.03.2010
Datum Zeit Temp. A. Feuchte A. Luftdruck Regen Wind Richtung Richtung Sonnenschein Solar Taupunkt Windchill Windben
17.03.2010 00:01 4,7 C 82 % 1022,5 hPa 0,0 l/m 11,4 km/h (2 Bft) W 260 0 min 0 W/m 1,9 C 0,8 C 11,4 km/h (2 Bft)
17.03.2010 00:06 4,9 C 82 % 1022,5 hPa 0,0 l/m 9,8 km/h (2 Bft) W-SW 250 0 min 0 W/m 2,1 C 2,1 C 9,8 km/h (2 Bft)
17.03.2010 00:11 5,1 C 82 % 1022,5 hPa 0,0 l/m 12,4 km/h (2 Bft) W 260 0 min 0 W/m 2,3 C 0,6 C 12,4 km/h (2 Bft)
17.03.2010 00:16 5,1 C 82 % 1022,5 hPa 0,0 l/m 13,3 km/h (3 Bft) W 260 0 min 0 W/m 2,3 C 0,1 C 13,3 km/h (3 Bft)
17.03.2010 00:21 5,2 C 82 % 1022,5 hPa 0,0 l/m 11,2 km/h (2 Bft) W 265 0 min 0 W/m 2,4 C 1,5 C 11,2 km/h (2 Bft)
17.03.2010 00:26 5,2 C 82 % 1022,5 hPa 0,0 l/m 12,1 km/h (2 Bft) W 265 0 min 0 W/m 2,4 C 0,9 C 12,1 km/h (2 Bft)
17.03.2010 00:31 5,2 C 82 % 1022,5 hPa 0,0 l/m 10,3 km/h (2 Bft) W 270 0 min 0 W/m 2,4 C 2,1 C 10,3 km/h (2 Bft)
17.03.2010 00:36 5,3 C 83 % 1022,5 hPa 0,0 l/m 10,7 km/h (2 Bft) W-SW 255 0 min 0 W/m 2,7 C 1,9 C 10,7 km/h (2 Bft)
17.03.2010 00:41 5,2 C 83 % 1022,5 hPa 0,0 l/m 12,9 km/h (3 Bft) W 270 0 min 0 W/m 2,6 C 0,5 C 12,9 km/h (3 Bft)
17.03.2010 00:46 5,2 C 84 % 1022,5 hPa 0,0 l/m 13,1 km/h (3 Bft) W 260 0 min 0 W/m 2,7 C 0,3 C 13,1 km/h (3 Bft)
17.03.2010 00:51 5,2 C 84 % 1022,5 hPa 0,0 l/m 15,0 km/h (3 Bft) W-SW 255 0 min 0 W/m 2,7 C -0,7 C 15,0 km/h (3 Bft)
17.03.2010 00:56 5,1 C 84 % 1022,5 hPa 0,0 l/m 15,3 km/h (3 Bft) W-SW 255 0 min 0 W/m 2,6 C -1,0 C 15,3 km/h (3 Bft)
17.03.2010 01:01 5,1 C 85 % 1022,5 hPa 0,0 l/m 16,1 km/h (3 Bft) W 260 0 min 0 W/m 2,8 C -1,3 C 16,1 km/h (3 Bft)
17.03.2010 01:06 5,1 C 85 % 1022,5 hPa 0,0 l/m 15,7 km/h (3 Bft) W 260 0 min 0 W/m 2,8 C -1,2 C 15,7 km/h (3 Bft)
17.03.2010 01:11 4,9 C 85 % 1022,5 hPa 0,0 l/m 17,2 km/h (3 Bft) W 260 0 min 0 W/m 2,6 C -2,1 C 17,2 km/h (3 Bft)
17.03.2010 01:16 5,1 C 86 % 1022,5 hPa 0,0 l/m 13,1 km/h (3 Bft) W-SW 255 0 min 0 W/m 3,0 C 0,2 C 13,1 km/h (3 Bft)
17.03.2010 01:21 5,1 C 86 % 1022,5 hPa 0,0 l/m 15,3 km/h (3 Bft) W-SW 250 0 min 0 W/m 3,0 C -1,0 C 15,3 km/h (3 Bft)
17.03.2010 01:26 5,1 C 87 % 1022,5 hPa 0,0 l/m 17,2 km/h (3 Bft) W-SW 250 0 min 0 W/m 3,1 C -1,9 C 17,2 km/h (3 Bft)
17.03.2010 01:31 4,9 C 87 % 1022,5 hPa 0,0 l/m 13,4 km/h (3 Bft) W-SW 250 0 min 0 W/m 2,9 C -0,2 C 13,4 km/h (3 Bft)
17.03.2010 01:36 4,9 C 87 % 1022,5 hPa 0,0 l/m 18,8 km/h (3 Bft) W-SW 255 0 min 0 W/m 2,9 C -2,8 C 18,8 km/h (3 Bft)
17.03.2010 01:41 4,9 C 87 % 1022,5 hPa 0,0 l/m 17,9 km/h (3 Bft) W-SW 250 0 min 0 W/m 2,9 C -2,4 C 17,9 km/h (3 Bft)
17.03.2010 01:46 4,9 C 88 % 1022,5 hPa 0,0 l/m 17,6 km/h (3 Bft) W-SW 255 0 min 0 W/m 3,1 C -2,3 C 17,6 km/h (3 Bft)
17.03.2010 01:51 4,9 C 88 % 1022,5 hPa 0,0 l/m 14,1 km/h (3 Bft) W-SW 255 0 min 0 W/m 3,1 C -0,6 C 14,1 km/h (3 Bft)
17.03.2010 01:56 4,9 C 88 % 1022,5 hPa 0,0 l/m 15,3 km/h (3 Bft) W-SW 250 0 min 0 W/m 3,1 C -1,2 C 15,3 km/h (3 Bft)
17.03.2010 02:01 4,9 C 88 % 1022,5 hPa 0,0 l/m 15,1 km/h (3 Bft) W-SW 255 0 min 0 W/m 3,1 C -1,1 C 15,1 km/h (3 Bft)
17.03.2010 02:06 5,1 C 87 % 1022,5 hPa 0,0 l/m 15,8 km/h (3 Bft) W-SW 255 0 min 0 W/m 3,1 C -1,2 C 15,8 km/h (3 Bft)
17.03.2010 02:11 5,1 C 88 % 1021,5 hPa 0,0 l/m 17,4 km/h (3 Bft) W-SW 255 0 min 0 W/m 3,3 C -1,9 C 17,4 km/h (3 Bft)
17.03.2010 02:16 5,1 C 88 % 1021,5 hPa 0,0 l/m 17,6 km/h (3 Bft) W-SW 255 0 min 0 W/m 3,3 C -2,0 C 17,6 km/h (3 Bft)
17.03.2010 02:21 5,1 C 88 % 1021,5 hPa 0,0 l/m 16,0 km/h (3 Bft) W-SW 255 0 min 0 W/m 3,3 C -1,3 C 16,0 km/h (3 Bft)
17.03.2010 02:26 5,1 C 88 % 1021,5 hPa 0,0 l/m 19,6 km/h (3 Bft) W 265 0 min 0 W/m 3,3 C -2,9 C 19,6 km/h (3 Bft)
17.03.2010 02:31 5,1 C 88 % 1021,5 hPa 0,0 l/m 20,5 km/h (4 Bft) W 260 0 min 0 W/m 3,3 C -3,2 C 20,5 km/h (4 Bft)
17.03.2010 02:36 5,1 C 88 % 1021,5 hPa 0,0 l/m 21,6 km/h (4 Bft) W-SW 255 0 min 0 W/m 3,3 C -3,7 C 21,6 km/h (4 Bft)
17.03.2010 02:41 5,1 C 88 % 1021,5 hPa 0,0 l/m 19,5 km/h (3 Bft) W 260 0 min 0 W/m 3,3 C -2,8 C 19,5 km/h (3 Bft)
17.03.2010 02:46 4,9 C 88 % 1021,5 hPa 0,0 l/m 14,9 km/h (3 Bft) W-SW 250 0 min 0 W/m 3,1 C -1,0 C 14,9 km/h (3 Bft)
17.03.2010 02:51 5,1 C 88 % 1021,5 hPa 0,0 l/m 19,2 km/h (3 Bft) W-SW 255 0 min 0 W/m 3,3 C -2,7 C 19,2 km/h (3 Bft)
17.03.2010 02:56 4,9 C 88 % 1021,5 hPa 0,0 l/m 18,4 km/h (3 Bft) W-SW 255 0 min 0 W/m 3,1 C -2,6 C 18,4 km/h (3 Bft)
17.03.2010 03:01 4,9 C 88 % 1021,5 hPa 0,0 l/m 18,3 km/h (3 Bft) W-SW 255 0 min 0 W/m 3,1 C -2,6 C 18,3 km/h (3 Bft)
17.03.2010 03:06 4,9 C 88 % 1021,5 hPa 0,0 l/m 17,8 km/h (3 Bft) W-SW 255 0 min 0 W/m 3,1 C -2,4 C 17,8 km/h (3 Bft)
17.03.2010 03:11 4,8 C 88 % 1021,5 hPa 0,0 l/m 16,7 km/h (3 Bft) W 265 0 min 0 W/m 3,0 C -2,0 C 16,7 km/h (3 Bft)
17.03.2010 03:16 4,8 C 88 % 1021,5 hPa 0,0 l/m 25,4 km/h (4 Bft) W 260 0 min 0 W/m 3,0 C -5,3 C 25,4 km/h (4 Bft)
17.03.2010 03:21 4,8 C 88 % 1021,5 hPa 0,0 l/m 19,8 km/h (3 Bft) W 260 0 min 0 W/m 3,0 C -3,4 C 19,8 km/h (3 Bft)
17.03.2010 03:26 4,8 C 88 % 1021,5 hPa 0,0 l/m 21,3 km/h (4 Bft) W-SW 255 0 min 0 W/m 3,0 C -3,9 C 21,3 km/h (4 Bft)
17.03.2010 03:31 4,8 C 88 % 1021,5 hPa 0,0 l/m 21,5 km/h (4 Bft) W-SW 255 0 min 0 W/m 3,0 C -4,0 C 21,5 km/h (4 Bft)
17.03.2010 03:36 4,8 C 88 % 1021,5 hPa 0,0 l/m 24,1 km/h (4 Bft) W-SW 250 0 min 0 W/m 3,0 C -4,9 C 24,1 km/h (4 Bft)
17.03.2010 03:41 4,8 C 88 % 1021,5 hPa 0,0 l/m 22,4 km/h (4 Bft) W 260 0 min 0 W/m 3,0 C -4,3 C 22,4 km/h (4 Bft)
17.03.2010 03:46 4,7 C 88 % 1021,5 hPa 0,0 l/m 25,3 km/h (4 Bft) W 260 0 min 0 W/m 2,9 C -5,4 C 25,3 km/h (4 Bft)
17.03.2010 03:51 4,8 C 88 % 1021,5 hPa 0,0 l/m 22,3 km/h (4 Bft) W-SW 255 0 min 0 W/m 3,0 C -4,3 C 22,3 km/h (4 Bft)
17.03.2010 03:56 4,7 C 88 % 1021,5 hPa 0,0 l/m 22,3 km/h (4 Bft) W-SW 255 0 min 0 W/m 2,9 C -4,4 C 22,3 km/h (4 Bft)
17.03.2010 04:01 4,7 C 88 % 1021,5 hPa 0,0 l/m 25,5 km/h (4 Bft) W 260 0 min 0 W/m 2,9 C -5,5 C 25,5 km/h (4 Bft)
17.03.2010 04:07 4,7 C 88 % 1021,5 hPa 0,0 l/m 22,6 km/h (4 Bft) W-SW 255 0 min 0 W/m 2,9 C -4,5 C 22,6 km/h (4 Bft)
17.03.2010 04:12 4,7 C 88 % 1021,5 hPa 0,0 l/m 21,3 km/h (4 Bft) W 265 0 min 0 W/m 2,9 C -4,1 C 21,3 km/h (4 Bft)
17.03.2010 04:17 4,7 C 88 % 1021,5 hPa 0,0 l/m 24,1 km/h (4 Bft) W 260 0 min 0 W/m 2,9 C -5,1 C 24,1 km/h (4 Bft)
17.03.2010 04:21 4,7 C 88 % 1021,5 hPa 0,0 l/m 28,9 km/h (5 Bft) W-SW 255 0 min 0 W/m 2,9 C -6,5 C 28,9 km/h (5 Bft)
17.03.2010 04:27 4,7 C 88 % 1021,5 hPa 0,0 l/m 22,8 km/h (4 Bft) W 260 0 min 0 W/m 2,9 C -4,6 C 22,8 km/h (4 Bft)
17.03.2010 04:32 4,7 C 87 % 1020,5 hPa 0,0 l/m 24,5 km/h (4 Bft) W-SW 255 0 min 0 W/m 2,7 C -5,2 C 24,5 km/h (4 Bft)
17.03.2010 04:37 4,7 C 87 % 1020,5 hPa 0,0 l/m 26,0 km/h (4 Bft) W 260 0 min 0 W/m 2,7 C -5,7 C 26,0 km/h (4 Bft)
17.03.2010 04:42 4,7 C 87 % 1020,5 hPa 0,0 l/m 20,9 km/h (4 Bft) W-SW 255 0 min 0 W/m 2,7 C -3,9 C 20,9 km/h (4 Bft)
17.03.2010 04:47 4,7 C 87 % 1020,5 hPa 0,0 l/m 22,1 km/h (4 Bft) W 260 0 min 0 W/m 2,7 C -4,4 C 22,1 km/h (4 Bft)
17.03.2010 04:52 4,6 C 87 % 1020,5 hPa 0,0 l/m 21,5 km/h (4 Bft) W 260 0 min 0 W/m 2,6 C -4,3 C 21,5 km/h (4 Bft)
17.03.2010 04:56 4,6 C 87 % 1020,5 hPa 0,0 l/m 19,3 km/h (3 Bft) W 260 0 min 0 W/m 2,6 C -3,4 C 19,3 km/h (3 Bft)
17.03.2010 05:02 4,6 C 87 % 1020,5 hPa 0,0 l/m 19,4 km/h (3 Bft) W 260 0 min 0 W/m 2,6 C -3,4 C 19,4 km/h (3 Bft)
17.03.2010 05:07 4,6 C 86 % 1020,5 hPa 0,0 l/m 22,8 km/h (4 Bft) W 260 0 min 0 W/m 2,5 C -4,7 C 22,8 km/h (4 Bft)
17.03.2010 05:12 4,5 C 87 % 1020,5 hPa 0,0 l/m 23,1 km/h (4 Bft) W-SW 255 0 min 0 W/m 2,5 C -5,0 C 23,1 km/h (4 Bft)
17.03.2010 05:17 4,5 C 87 % 1020,5 hPa 0,0 l/m 20,8 km/h (4 Bft) W-SW 255 0 min 0 W/m 2,5 C -4,1 C 20,8 km/h (4 Bft)
17.03.2010 05:22 4,5 C 86 % 1020,5 hPa 0,0 l/m 22,1 km/h (4 Bft) W-SW 255 0 min 0 W/m 2,4 C -4,6 C 22,1 km/h (4 Bft)
17.03.2010 05:27 4,5 C 86 % 1020,5 hPa 0,0 l/m 17,3 km/h (3 Bft) W 260 0 min 0 W/m 2,4 C -2,7 C 17,3 km/h (3 Bft)
17.03.2010 05:32 4,5 C 86 % 1020,5 hPa 0,0 l/m 21,2 km/h (4 Bft) W 265 0 min 0 W/m 2,4 C -4,3 C 21,2 km/h (4 Bft)
17.03.2010 05:37 4,5 C 86 % 1020,5 hPa 0,0 l/m 20,2 km/h (4 Bft) W 270 0 min 0 W/m 2,4 C -3,9 C 20,2 km/h (4 Bft)
17.03.2010 05:42 4,5 C 86 % 1020,5 hPa 0,0 l/m 22,1 km/h (4 Bft) W 260 0 min 0 W/m 2,4 C -4,6 C 22,1 km/h (4 Bft)
17.03.2010 05:47 4,5 C 86 % 1020,5 hPa 0,0 l/m 22,3 km/h (4 Bft) W 260 0 min 0 W/m 2,4 C -4,7 C 22,3 km/h (4 Bft)
17.03.2010 05:52 4,6 C 86 % 1020,5 hPa 0,0 l/m 22,3 km/h (4 Bft) W 260 0 min 0 W/m 2,5 C -4,6 C 22,3 km/h (4 Bft)
17.03.2010 05:57 4,6 C 86 % 1020,5 hPa 0,0 l/m 21,0 km/h (4 Bft) W 260 0 min 0 W/m 2,5 C -4,1 C 21,0 km/h (4 Bft)
17.03.2010 06:02 4,6 C 85 % 1020,5 hPa 0,0 l/m 21,0 km/h (4 Bft) W 260 0 min 0 W/m 2,3 C -4,1 C 21,0 km/h (4 Bft)
17.03.2010 06:07 4,7 C 85 % 1020,5 hPa 0,0 l/m 23,9 km/h (4 Bft) W 260 0 min 0 W/m 2,4 C -5,0 C 23,9 km/h (4 Bft)
17.03.2010 06:12 4,7 C 85 % 1020,5 hPa 0,0 l/m 23,1 km/h (4 Bft) W-SW 250 0 min 0 W/m 2,4 C -4,7 C 23,1 km/h (4 Bft)
17.03.2010 06:17 4,7 C 85 % 1020,5 hPa 0,0 l/m 16,6 km/h (3 Bft) W 260 0 min 0 W/m 2,4 C -2,1 C 16,6 km/h (3 Bft)
17.03.2010 06:22 4,7 C 85 % 1020,5 hPa 0,0 l/m 21,9 km/h (4 Bft) W 260 0 min 0 W/m 2,4 C -4,3 C 21,9 km/h (4 Bft)
17.03.2010 06:27 4,7 C 85 % 1020,5 hPa 0,0 l/m 19,4 km/h (3 Bft) W 260 0 min 0 W/m 2,4 C -3,3 C 19,4 km/h (3 Bft)
17.03.2010 06:32 4,7 C 85 % 1020,5 hPa 0,0 l/m 16,6 km/h (3 Bft) W 260 0 min 0 W/m 2,4 C -2,1 C 16,6 km/h (3 Bft)
17.03.2010 06:36 4,7 C 85 % 1020,5 hPa 0,0 l/m 18,0 km/h (3 Bft) W-SW 255 0 min 0 W/m 2,4 C -2,7 C 18,0 km/h (3 Bft)
17.03.2010 06:42 4,7 C 85 % 1020,5 hPa 0,0 l/m 14,3 km/h (3 Bft) W 260 0 min 0 W/m 2,4 C -0,9 C 14,3 km/h (3 Bft)
17.03.2010 06:47 4,7 C 85 % 1020,5 hPa 0,0 l/m 14,1 km/h (3 Bft) W-SW 250 0 min 0 W/m 2,4 C -0,8 C 14,1 km/h (3 Bft)
17.03.2010 06:52 4,7 C 85 % 1020,5 hPa 0,0 l/m 15,6 km/h (3 Bft) W-SW 255 0 min 0 W/m 2,4 C -1,6 C 15,6 km/h (3 Bft)
17.03.2010 06:57 4,7 C 85 % 1020,5 hPa 0,0 l/m 16,5 km/h (3 Bft) W-SW 255 0 min 0 W/m 2,4 C -2,0 C 16,5 km/h (3 Bft)
17.03.2010 07:02 4,7 C 86 % 1020,5 hPa 0,0 l/m 20,1 km/h (4 Bft) W 260 0 min 0 W/m 2,6 C -3,6 C 20,1 km/h (4 Bft)
17.03.2010 07:07 4,7 C 86 % 1020,5 hPa 0,0 l/m 17,3 km/h (3 Bft) W-SW 255 0 min 0 W/m 2,6 C -2,4 C 17,3 km/h (3 Bft)
17.03.2010 07:12 4,7 C 86 % 1020,5 hPa 0,0 l/m 18,8 km/h (3 Bft) W-SW 255 0 min 0 W/m 2,6 C -3,1 C 18,8 km/h (3 Bft)
17.03.2010 07:17 4,7 C 86 % 1020,5 hPa 0,0 l/m 19,5 km/h (3 Bft) W-SW 255 0 min 0 W/m 2,6 C -3,4 C 19,5 km/h (3 Bft)
17.03.2010 07:22 4,7 C 86 % 1020,5 hPa 0,0 l/m 18,8 km/h (3 Bft) W-SW 255 0 min 0 W/m 2,6 C -3,1 C 18,8 km/h (3 Bft)
17.03.2010 07:26 4,7 C 86 % 1020,5 hPa 0,0 l/m 16,6 km/h (3 Bft) W-SW 255 0 min 0 W/m 2,6 C -2,1 C 16,6 km/h (3 Bft)
17.03.2010 07:32 4,7 C 86 % 1020,5 hPa 0,0 l/m 17,5 km/h (3 Bft) W-SW 255 0 min 0 W/m 2,6 C -2,5 C 17,5 km/h (3 Bft)
17.03.2010 07:37 4,8 C 85 % 1020,5 hPa 0,0 l/m 19,2 km/h (3 Bft) W-SW 245 0 min 0 W/m 2,5 C -3,1 C 19,2 km/h (3 Bft)
17.03.2010 07:42 4,8 C 85 % 1020,5 hPa 0,0 l/m 19,2 km/h (3 Bft) W-SW 245 0 min 0 W/m 2,5 C -3,1 C 19,2 km/h (3 Bft)
17.03.2010 07:47 4,9 C 85 % 1020,5 hPa 0,0 l/m 19,9 km/h (4 Bft) W 260 0 min 0 W/m 2,6 C -3,3 C 19,9 km/h (4 Bft)
17.03.2010 07:52 4,9 C 85 % 1020,5 hPa 0,0 l/m 22,3 km/h (4 Bft) W-SW 250 0 min 0 W/m 2,6 C -4,2 C 22,3 km/h (4 Bft)
17.03.2010 07:57 4,9 C 85 % 1020,5 hPa 0,0 l/m 24,0 km/h (4 Bft) W-SW 255 0 min 0 W/m 2,6 C -4,8 C 24,0 km/h (4 Bft)
17.03.2010 08:02 4,9 C 85 % 1020,5 hPa 0,0 l/m 16,9 km/h (3 Bft) W-SW 255 0 min 0 W/m 2,6 C -2,0 C 16,9 km/h (3 Bft)
17.03.2010 08:07 4,9 C 85 % 1020,5 hPa 0,0 l/m 15,1 km/h (3 Bft) W-SW 255 0 min 0 W/m 2,6 C -1,1 C 15,1 km/h (3 Bft)
17.03.2010 08:12 4,9 C 85 % 1020,5 hPa 0,0 l/m 18,5 km/h (3 Bft) W 260 0 min 0 W/m 2,6 C -2,7 C 18,5 km/h (3 Bft)
17.03.2010 08:17 5,1 C 85 % 1020,5 hPa 0,0 l/m 17,0 km/h (3 Bft) W-SW 250 0 min 0 W/m 2,8 C -1,8 C 17,0 km/h (3 Bft)
17.03.2010 08:22 5,2 C 85 % 1020,5 hPa 0,0 l/m 18,7 km/h (3 Bft) W-SW 255 0 min 0 W/m 2,9 C -2,4 C 18,7 km/h (3 Bft)
17.03.2010 08:27 5,2 C 85 % 1020,5 hPa 0,0 l/m 18,6 km/h (3 Bft) W-SW 250 0 min 0 W/m 2,9 C -2,3 C 18,6 km/h (3 Bft)
17.03.2010 08:32 5,2 C 85 % 1020,5 hPa 0,0 l/m 17,0 km/h (3 Bft) W-SW 255 0 min 0 W/m 2,9 C -1,6 C 17,0 km/h (3 Bft)
17.03.2010 08:37 5,3 C 84 % 1020,5 hPa 0,0 l/m 24,9 km/h (4 Bft) W-SW 240 0 min 0 W/m 2,8 C -4,5 C 24,9 km/h (4 Bft)
17.03.2010 08:42 5,4 C 84 % 1020,5 hPa 0,0 l/m 23,2 km/h (4 Bft) W-SW 255 0 min 0 W/m 2,9 C -3,8 C 23,2 km/h (4 Bft)
17.03.2010 08:47 5,4 C 84 % 1020,5 hPa 0,0 l/m 22,0 km/h (4 Bft) W-SW 250 0 min 0 W/m 2,9 C -3,4 C 22,0 km/h (4 Bft)
17.03.2010 08:52 5,5 C 84 % 1020,5 hPa 0,0 l/m 19,3 km/h (3 Bft) W-SW 255 0 min 0 W/m 3,0 C -2,2 C 19,3 km/h (3 Bft)
17.03.2010 08:57 5,5 C 83 % 1020,5 hPa 0,0 l/m 25,8 km/h (4 Bft) W-SW 255 0 min 0 W/m 2,8 C -4,5 C 25,8 km/h (4 Bft)
17.03.2010 09:02 5,6 C 84 % 1020,5 hPa 0,0 l/m 15,6 km/h (3 Bft) W-SW 245 0 min 0 W/m 3,1 C -0,5 C 15,6 km/h (3 Bft)
17.03.2010 09:07 5,6 C 83 % 1020,5 hPa 0,0 l/m 19,2 km/h (3 Bft) W 260 0 min 0 W/m 2,9 C -2,1 C 19,2 km/h (3 Bft)
17.03.2010 09:12 5,8 C 83 % 1020,5 hPa 0,0 l/m 22,3 km/h (4 Bft) W-SW 245 0 min 0 W/m 3,1 C -3,0 C 22,3 km/h (4 Bft)
17.03.2010 09:17 5,8 C 83 % 1020,5 hPa 0,0 l/m 21,6 km/h (4 Bft) W-SW 255 0 min 0 W/m 3,1 C -2,7 C 21,6 km/h (4 Bft)
17.03.2010 09:22 6,0 C 82 % 1020,5 hPa 0,0 l/m 23,9 km/h (4 Bft) W-SW 250 0 min 0 W/m 3,2 C -3,2 C 23,9 km/h (4 Bft)
17.03.2010 09:27 6,1 C 81 % 1020,5 hPa 0,0 l/m 21,1 km/h (4 Bft) W-SW 250 0 min 0 W/m 3,1 C -2,2 C 21,1 km/h (4 Bft)
17.03.2010 09:32 6,3 C 82 % 1020,5 hPa 0,0 l/m 18,5 km/h (3 Bft) W-SW 250 0 min 0 W/m 3,5 C -0,9 C 18,5 km/h (3 Bft)
17.03.2010 09:37 6,4 C 81 % 1020,5 hPa 0,0 l/m 15,7 km/h (3 Bft) W-SW 245 0 min 0 W/m 3,4 C 0,4 C 15,7 km/h (3 Bft)
17.03.2010 09:42 6,5 C 80 % 1020,5 hPa 0,0 l/m 18,9 km/h (3 Bft) W-SW 250 0 min 0 W/m 3,3 C -0,8 C 18,9 km/h (3 Bft)
17.03.2010 09:47 6,6 C 79 % 1020,5 hPa 0,0 l/m 20,1 km/h (4 Bft) W-SW 255 0 min 0 W/m 3,2 C -1,1 C 20,1 km/h (4 Bft)
17.03.2010 09:52 6,6 C 79 % 1020,5 hPa 0,0 l/m 22,7 km/h (4 Bft) W-SW 240 0 min 0 W/m 3,2 C -2,1 C 22,7 km/h (4 Bft)
17.03.2010 09:57 6,6 C 80 % 1020,5 hPa 0,0 l/m 20,8 km/h (4 Bft) W-SW 250 0 min 0 W/m 3,4 C -1,4 C 20,8 km/h (4 Bft)
17.03.2010 10:02 6,9 C 78 % 1020,5 hPa 0,0 l/m 21,0 km/h (4 Bft) W-SW 250 0 min 0 W/m 3,3 C -1,1 C 21,0 km/h (4 Bft)
17.03.2010 10:07 7,2 C 77 % 1020,5 hPa 0,0 l/m 18,0 km/h (3 Bft) W-SW 250 0 min 0 W/m 3,4 C 0,4 C 18,0 km/h (3 Bft)
17.03.2010 10:12 7,3 C 76 % 1020,5 hPa 0,0 l/m 27,2 km/h (5 Bft) W-SW 255 0 min 0 W/m 3,4 C -2,4 C 27,2 km/h (5 Bft)
17.03.2010 10:17 7,6 C 76 % 1020,5 hPa 0,0 l/m 22,5 km/h (4 Bft) W-SW 255 0 min 0 W/m 3,6 C -0,7 C 22,5 km/h (4 Bft)
17.03.2010 10:22 7,8 C 75 % 1020,5 hPa 0,0 l/m 21,0 km/h (4 Bft) W-SW 250 0 min 0 W/m 3,7 C 0,1 C 21,0 km/h (4 Bft)
17.03.2010 10:27 7,9 C 72 % 1020,5 hPa 0,0 l/m 26,0 km/h (4 Bft) W-SW 250 0 min 0 W/m 3,2 C -1,3 C 26,0 km/h (4 Bft)
17.03.2010 10:32 7,9 C 72 % 1020,5 hPa 0,0 l/m 26,7 km/h (4 Bft) W 260 0 min 0 W/m 3,2 C -1,5 C 26,7 km/h (4 Bft)
17.03.2010 10:37 8,0 C 73 % 1019,5 hPa 0,0 l/m 21,8 km/h (4 Bft) W 260 0 min 0 W/m 3,5 C 0,1 C 21,8 km/h (4 Bft)
17.03.2010 10:42 8,2 C 72 % 1019,5 hPa 0,0 l/m 22,7 km/h (4 Bft) W-SW 250 0 min 0 W/m 3,5 C 0,1 C 22,7 km/h (4 Bft)
17.03.2010 10:47 8,2 C 71 % 1019,5 hPa 0,0 l/m 23,0 km/h (4 Bft) W-SW 255 0 min 0 W/m 3,3 C -0,0 C 23,0 km/h (4 Bft)
17.03.2010 10:52 8,3 C 72 % 1019,5 hPa 0,0 l/m 23,2 km/h (4 Bft) W-SW 250 0 min 0 W/m 3,6 C 0,1 C 23,2 km/h (4 Bft)
17.03.2010 10:57 8,4 C 72 % 1019,5 hPa 0,0 l/m 21,1 km/h (4 Bft) W-SW 245 0 min 0 W/m 3,7 C 0,8 C 21,1 km/h (4 Bft)
17.03.2010 11:02 8,4 C 71 % 1019,5 hPa 0,0 l/m 24,1 km/h (4 Bft) W-SW 250 0 min 0 W/m 3,5 C -0,1 C 24,1 km/h (4 Bft)
17.03.2010 11:07 8,4 C 71 % 1019,5 hPa 0,0 l/m 26,0 km/h (4 Bft) W-SW 245 0 min 0 W/m 3,5 C -0,6 C 26,0 km/h (4 Bft)
17.03.2010 11:12 8,5 C 71 % 1019,5 hPa 0,0 l/m 20,5 km/h (4 Bft) SW 235 0 min 0 W/m 3,5 C 1,2 C 20,5 km/h (4 Bft)
17.03.2010 11:17 8,6 C 71 % 1019,5 hPa 0,0 l/m 24,9 km/h (4 Bft) W 260 0 min 0 W/m 3,6 C -0,0 C 24,9 km/h (4 Bft)
17.03.2010 11:22 8,6 C 70 % 1019,5 hPa 0,0 l/m 24,5 km/h (4 Bft) W-SW 255 0 min 0 W/m 3,4 C 0,1 C 24,5 km/h (4 Bft)
17.03.2010 11:27 8,8 C 70 % 1019,5 hPa 0,0 l/m 24,4 km/h (4 Bft) W 260 0 min 0 W/m 3,6 C 0,4 C 24,4 km/h (4 Bft)
17.03.2010 11:32 9,2 C 69 % 1019,5 hPa 0,0 l/m 25,1 km/h (4 Bft) W-SW 255 0 min 0 W/m 3,8 C 0,7 C 25,1 km/h (4 Bft)
17.03.2010 11:37 9,4 C 68 % 1019,5 hPa 0,0 l/m 21,6 km/h (4 Bft) W-SW 250 0 min 0 W/m 3,8 C 2,0 C 21,6 km/h (4 Bft)
17.03.2010 11:42 9,7 C 66 % 1019,5 hPa 0,0 l/m 24,5 km/h (4 Bft) W-SW 255 0 min 0 W/m 3,7 C 1,6 C 24,5 km/h (4 Bft)
17.03.2010 11:47 9,8 C 65 % 1019,5 hPa 0,0 l/m 29,8 km/h (5 Bft) W-SW 255 0 min 0 W/m 3,5 C 0,4 C 29,8 km/h (5 Bft)
17.03.2010 11:52 9,8 C 65 % 1019,5 hPa 0,0 l/m 25,8 km/h (4 Bft) W 260 0 min 0 W/m 3,5 C 1,4 C 25,8 km/h (4 Bft)
17.03.2010 11:57 9,6 C 65 % 1019,5 hPa 0,0 l/m 28,4 km/h (5 Bft) W-SW 255 0 min 0 W/m 3,4 C 0,5 C 28,4 km/h (5 Bft)
17.03.2010 12:02 9,5 C 66 % 1019,5 hPa 0,0 l/m 28,6 km/h (5 Bft) W-SW 250 0 min 0 W/m 3,5 C 0,3 C 28,6 km/h (5 Bft)
17.03.2010 12:07 9,5 C 66 % 1019,5 hPa 0,0 l/m 25,1 km/h (4 Bft) W-SW 250 0 min 0 W/m 3,5 C 1,1 C 25,1 km/h (4 Bft)
17.03.2010 12:12 9,6 C 64 % 1019,5 hPa 0,0 l/m 28,0 km/h (5 Bft) W-SW 255 0 min 0 W/m 3,1 C 0,5 C 28,0 km/h (5 Bft)
17.03.2010 12:17 9,5 C 64 % 1019,5 hPa 0,0 l/m 30,2 km/h (5 Bft) W-SW 245 0 min 0 W/m 3,0 C -0,1 C 30,2 km/h (5 Bft)
17.03.2010 12:22 9,6 C 65 % 1019,5 hPa 0,0 l/m 27,6 km/h (5 Bft) W 260 0 min 0 W/m 3,4 C 0,6 C 27,6 km/h (5 Bft)
17.03.2010 12:27 9,9 C 64 % 1019,5 hPa 0,0 l/m 34,2 km/h (5 Bft) W-SW 245 0 min 0 W/m 3,4 C -0,3 C 34,2 km/h (5 Bft)
17.03.2010 12:32 9,9 C 64 % 1019,5 hPa 0,0 l/m 29,0 km/h (5 Bft) W-SW 255 0 min 0 W/m 3,4 C 0,7 C 29,0 km/h (5 Bft)
17.03.2010 12:37 9,8 C 65 % 1019,5 hPa 0,0 l/m 31,2 km/h (5 Bft) W-SW 250 0 min 0 W/m 3,5 C 0,1 C 31,2 km/h (5 Bft)
17.03.2010 12:42 9,6 C 64 % 1019,5 hPa 0,0 l/m 29,8 km/h (5 Bft) W-SW 255 0 min 0 W/m 3,1 C 0,1 C 29,8 km/h (5 Bft)
17.03.2010 12:47 9,6 C 66 % 1019,5 hPa 0,0 l/m 26,0 km/h (4 Bft) W-SW 250 0 min 0 W/m 3,6 C 1,0 C 26,0 km/h (4 Bft)
17.03.2010 12:52 9,8 C 65 % 1019,5 hPa 0,0 l/m 27,5 km/h (5 Bft) W-SW 255 0 min 0 W/m 3,5 C 0,9 C 27,5 km/h (5 Bft)
17.03.2010 12:57 9,7 C 65 % 1019,5 hPa 0,0 l/m 28,5 km/h (5 Bft) W-SW 255 0 min 0 W/m 3,4 C 0,6 C 28,5 km/h (5 Bft)
17.03.2010 13:02 9,7 C 65 % 1019,5 hPa 0,0 l/m 28,6 km/h (5 Bft) W-SW 250 0 min 0 W/m 3,4 C 0,5 C 28,6 km/h (5 Bft)
17.03.2010 13:07 9,9 C 65 % 1019,5 hPa 0,0 l/m 32,9 km/h (5 Bft) W 260 0 min 0 W/m 3,6 C -0,1 C 32,9 km/h (5 Bft)
17.03.2010 13:12 9,9 C 65 % 1019,5 hPa 0,0 l/m 27,5 km/h (5 Bft) W 265 0 min 0 W/m 3,6 C 1,1 C 27,5 km/h (5 Bft)
17.03.2010 13:17 10,4 C 64 % 1019,5 hPa 0,0 l/m 26,8 km/h (4 Bft) W-SW 250 0 min 0 W/m 3,9 C 1,9 C 26,8 km/h (4 Bft)
17.03.2010 13:22 10,8 C 62 % 1019,5 hPa 0,0 l/m 26,6 km/h (4 Bft) W-SW 255 0 min 0 W/m 3,8 C 2,5 C 26,6 km/h (4 Bft)
17.03.2010 13:26 10,9 C 61 % 1019,5 hPa 0,0 l/m 23,6 km/h (4 Bft) W-SW 245 0 min 0 W/m 3,7 C 3,4 C 23,6 km/h (4 Bft)
17.03.2010 13:31 10,9 C 61 % 1018,5 hPa 0,0 l/m 30,5 km/h (5 Bft) W-SW 250 0 min 0 W/m 3,7 C 1,8 C 30,5 km/h (5 Bft)
17.03.2010 13:36 11,1 C 60 % 1018,5 hPa 0,0 l/m 29,3 km/h (5 Bft) W-SW 245 0 min 0 W/m 3,6 C 2,3 C 29,3 km/h (5 Bft)
17.03.2010 13:41 11,2 C 59 % 1018,5 hPa 0,0 l/m 27,7 km/h (5 Bft) W-SW 250 0 min 0 W/m 3,5 C 2,8 C 27,7 km/h (5 Bft)
17.03.2010 13:47 11,2 C 59 % 1018,5 hPa 0,0 l/m 34,7 km/h (5 Bft) W-SW 255 0 min 0 W/m 3,5 C 1,5 C 34,7 km/h (5 Bft)
17.03.2010 13:52 11,1 C 59 % 1018,5 hPa 0,0 l/m 26,5 km/h (4 Bft) W 260 0 min 0 W/m 3,4 C 3,0 C 26,5 km/h (4 Bft)
17.03.2010 13:57 11,3 C 58 % 1018,5 hPa 0,0 l/m 30,0 km/h (5 Bft) W 260 0 min 0 W/m 3,3 C 2,5 C 30,0 km/h (5 Bft)
17.03.2010 14:02 11,4 C 59 % 1018,5 hPa 0,0 l/m 27,8 km/h (5 Bft) W-SW 255 0 min 0 W/m 3,7 C 3,1 C 27,8 km/h (5 Bft)
17.03.2010 14:07 11,5 C 56 % 1018,5 hPa 0,0 l/m 27,4 km/h (5 Bft) W-SW 255 0 min 0 W/m 3,0 C 3,3 C 27,4 km/h (5 Bft)
17.03.2010 14:12 11,5 C 57 % 1018,5 hPa 0,0 l/m 29,5 km/h (5 Bft) W-SW 255 0 min 0 W/m 3,3 C 2,9 C 29,5 km/h (5 Bft)
17.03.2010 14:17 11,6 C 57 % 1018,5 hPa 0,0 l/m 26,9 km/h (4 Bft) W-SW 250 0 min 0 W/m 3,4 C 3,6 C 26,9 km/h (4 Bft)
17.03.2010 14:22 11,6 C 57 % 1018,5 hPa 0,0 l/m 29,6 km/h (5 Bft) W 260 0 min 0 W/m 3,4 C 3,0 C 29,6 km/h (5 Bft)
17.03.2010 14:27 11,5 C 58 % 1018,5 hPa 0,0 l/m 21,6 km/h (4 Bft) W-SW 250 0 min 0 W/m 3,5 C 4,8 C 21,6 km/h (4 Bft)
17.03.2010 14:32 11,3 C 58 % 1018,5 hPa 0,0 l/m 27,3 km/h (5 Bft) W-SW 250 0 min 0 W/m 3,3 C 3,1 C 27,3 km/h (5 Bft)
17.03.2010 14:37 11,4 C 59 % 1018,5 hPa 0,0 l/m 25,0 km/h (4 Bft) W-SW 250 0 min 0 W/m 3,7 C 3,7 C 25,0 km/h (4 Bft)
17.03.2010 14:42 11,7 C 56 % 1018,5 hPa 0,0 l/m 26,2 km/h (4 Bft) W-SW 245 0 min 0 W/m 3,2 C 3,9 C 26,2 km/h (4 Bft)
17.03.2010 14:47 11,7 C 58 % 1018,5 hPa 0,0 l/m 23,0 km/h (4 Bft) W-SW 250 0 min 0 W/m 3,7 C 4,6 C 23,0 km/h (4 Bft)
17.03.2010 14:52 11,8 C 56 % 1018,5 hPa 0,0 l/m 28,2 km/h (5 Bft) W-SW 255 0 min 0 W/m 3,3 C 3,6 C 28,2 km/h (5 Bft)
17.03.2010 14:57 11,6 C 57 % 1018,5 hPa 0,0 l/m 28,3 km/h (5 Bft) W-SW 250 0 min 0 W/m 3,4 C 3,3 C 28,3 km/h (5 Bft)
17.03.2010 15:02 11,6 C 58 % 1018,5 hPa 0,0 l/m 25,6 km/h (4 Bft) W-SW 240 0 min 0 W/m 3,6 C 3,9 C 25,6 km/h (4 Bft)
17.03.2010 15:07 11,7 C 58 % 1017,5 hPa 0,0 l/m 27,7 km/h (5 Bft) W-SW 245 0 min 0 W/m 3,7 C 3,5 C 27,7 km/h (5 Bft)
17.03.2010 15:12 11,8 C 56 % 1018,5 hPa 0,0 l/m 21,7 km/h (4 Bft) W-SW 250 0 min 0 W/m 3,3 C 5,1 C 21,7 km/h (4 Bft)
17.03.2010 15:17 11,8 C 56 % 1018,5 hPa 0,0 l/m 27,1 km/h (5 Bft) W-SW 245 0 min 0 W/m 3,3 C 3,8 C 27,1 km/h (5 Bft)
17.03.2010 15:22 11,8 C 56 % 1018,5 hPa 0,0 l/m 28,9 km/h (5 Bft) W-SW 250 0 min 0 W/m 3,3 C 3,4 C 28,9 km/h (5 Bft)
17.03.2010 15:27 11,8 C 55 % 1018,5 hPa 0,0 l/m 24,3 km/h (4 Bft) W-SW 245 0 min 0 W/m 3,1 C 4,4 C 24,3 km/h (4 Bft)
17.03.2010 15:32 11,8 C 56 % 1018,5 hPa 0,0 l/m 24,2 km/h (4 Bft) W-SW 245 0 min 0 W/m 3,3 C 4,5 C 24,2 km/h (4 Bft)
17.03.2010 15:37 11,9 C 56 % 1018,5 hPa 0,0 l/m 27,0 km/h (5 Bft) W-SW 255 0 min 0 W/m 3,4 C 3,9 C 27,0 km/h (5 Bft)
17.03.2010 15:42 11,8 C 56 % 1018,5 hPa 0,0 l/m 24,3 km/h (4 Bft) W-SW 250 0 min 0 W/m 3,3 C 4,4 C 24,3 km/h (4 Bft)
17.03.2010 15:47 11,7 C 56 % 1017,5 hPa 0,0 l/m 28,5 km/h (5 Bft) W-SW 250 0 min 0 W/m 3,2 C 3,4 C 28,5 km/h (5 Bft)
17.03.2010 15:52 11,6 C 57 % 1017,5 hPa 0,0 l/m 20,6 km/h (4 Bft) W-SW 250 0 min 0 W/m 3,4 C 5,2 C 20,6 km/h (4 Bft)
17.03.2010 15:57 11,6 C 57 % 1017,5 hPa 0,0 l/m 28,8 km/h (5 Bft) W 260 0 min 0 W/m 3,4 C 3,1 C 28,8 km/h (5 Bft)
17.03.2010 16:02 11,4 C 58 % 1017,5 hPa 0,0 l/m 27,8 km/h (5 Bft) W-SW 250 0 min 0 W/m 3,4 C 3,1 C 27,8 km/h (5 Bft)
17.03.2010 16:07 11,2 C 59 % 1017,5 hPa 0,0 l/m 27,8 km/h (5 Bft) W-SW 250 0 min 0 W/m 3,5 C 2,8 C 27,8 km/h (5 Bft)
17.03.2010 16:12 11,2 C 59 % 1017,5 hPa 0,0 l/m 25,7 km/h (4 Bft) W-SW 250 0 min 0 W/m 3,5 C 3,3 C 25,7 km/h (4 Bft)
17.03.2010 16:17 11,1 C 59 % 1017,5 hPa 0,0 l/m 25,9 km/h (4 Bft) W-SW 255 0 min 0 W/m 3,4 C 3,1 C 25,9 km/h (4 Bft)
17.03.2010 16:22 11,1 C 60 % 1017,5 hPa 0,0 l/m 27,1 km/h (5 Bft) W 260 0 min 0 W/m 3,6 C 2,8 C 27,1 km/h (5 Bft)
17.03.2010 16:27 11,1 C 60 % 1017,5 hPa 0,0 l/m 24,0 km/h (4 Bft) W-SW 255 0 min 0 W/m 3,6 C 3,6 C 24,0 km/h (4 Bft)
17.03.2010 16:32 11,0 C 60 % 1017,5 hPa 0,0 l/m 24,8 km/h (4 Bft) W-SW 250 0 min 0 W/m 3,5 C 3,2 C 24,8 km/h (4 Bft)
17.03.2010 16:37 11,1 C 60 % 1017,5 hPa 0,0 l/m 27,0 km/h (5 Bft) W 260 0 min 0 W/m 3,6 C 2,8 C 27,0 km/h (5 Bft)
17.03.2010 16:42 11,1 C 60 % 1017,5 hPa 0,0 l/m 29,5 km/h (5 Bft) W 260 0 min 0 W/m 3,6 C 2,3 C 29,5 km/h (5 Bft)
17.03.2010 16:47 11,2 C 60 % 1017,5 hPa 0,0 l/m 27,5 km/h (5 Bft) W-SW 255 0 min 0 W/m 3,7 C 2,9 C 27,5 km/h (5 Bft)
17.03.2010 16:52 11,3 C 59 % 1017,5 hPa 0,0 l/m 25,8 km/h (4 Bft) W 265 0 min 0 W/m 3,6 C 3,4 C 25,8 km/h (4 Bft)
17.03.2010 16:57 11,4 C 59 % 1017,5 hPa 0,0 l/m 26,3 km/h (4 Bft) W 260 0 min 0 W/m 3,7 C 3,4 C 26,3 km/h (4 Bft)
17.03.2010 17:02 11,4 C 59 % 1017,5 hPa 0,0 l/m 25,5 km/h (4 Bft) W 260 0 min 0 W/m 3,7 C 3,6 C 25,5 km/h (4 Bft)
17.03.2010 17:07 11,4 C 60 % 1017,5 hPa 0,0 l/m 26,4 km/h (4 Bft) W 260 0 min 0 W/m 3,9 C 3,4 C 26,4 km/h (4 Bft)
17.03.2010 17:12 11,3 C 60 % 1017,5 hPa 0,0 l/m 21,5 km/h (4 Bft) W-SW 255 0 min 0 W/m 3,8 C 4,5 C 21,5 km/h (4 Bft)
17.03.2010 17:17 11,2 C 60 % 1017,5 hPa 0,0 l/m 24,0 km/h (4 Bft) W 260 0 min 0 W/m 3,7 C 3,7 C 24,0 km/h (4 Bft)
17.03.2010 17:22 11,2 C 61 % 1017,5 hPa 0,0 l/m 24,8 km/h (4 Bft) W 260 0 min 0 W/m 4,0 C 3,5 C 24,8 km/h (4 Bft)
17.03.2010 17:27 11,1 C 61 % 1017,5 hPa 0,0 l/m 25,2 km/h (4 Bft) W 260 0 min 0 W/m 3,9 C 3,3 C 25,2 km/h (4 Bft)
17.03.2010 17:32 11,0 C 61 % 1017,5 hPa 0,0 l/m 24,5 km/h (4 Bft) W 260 0 min 0 W/m 3,8 C 3,3 C 24,5 km/h (4 Bft)
17.03.2010 17:37 11,0 C 60 % 1017,5 hPa 0,0 l/m 30,0 km/h (5 Bft) W 260 0 min 0 W/m 3,5 C 2,1 C 30,0 km/h (5 Bft)
17.03.2010 17:42 10,9 C 61 % 1017,5 hPa 0,0 l/m 24,2 km/h (4 Bft) W 260 0 min 0 W/m 3,7 C 3,3 C 24,2 km/h (4 Bft)
17.03.2010 17:47 10,9 C 61 % 1017,5 hPa 0,0 l/m 25,1 km/h (4 Bft) W 265 0 min 0 W/m 3,7 C 3,0 C 25,1 km/h (4 Bft)
17.03.2010 17:52 10,8 C 61 % 1017,5 hPa 0,0 l/m 27,3 km/h (5 Bft) W 265 0 min 0 W/m 3,6 C 2,4 C 27,3 km/h (5 Bft)
17.03.2010 17:57 10,8 C 62 % 1017,5 hPa 0,0 l/m 22,8 km/h (4 Bft) W-SW 255 0 min 0 W/m 3,8 C 3,5 C 22,8 km/h (4 Bft)
17.03.2010 18:02 10,7 C 62 % 1017,5 hPa 0,0 l/m 22,3 km/h (4 Bft) W 260 0 min 0 W/m 3,7 C 3,5 C 22,3 km/h (4 Bft)
17.03.2010 18:07 10,6 C 62 % 1017,5 hPa 0,0 l/m 22,5 km/h (4 Bft) W 260 0 min 0 W/m 3,6 C 3,3 C 22,5 km/h (4 Bft)
17.03.2010 18:12 10,6 C 62 % 1017,5 hPa 0,0 l/m 24,6 km/h (4 Bft) W 265 0 min 0 W/m 3,6 C 2,7 C 24,6 km/h (4 Bft)
17.03.2010 18:17 10,5 C 62 % 1017,5 hPa 0,0 l/m 23,2 km/h (4 Bft) W 265 0 min 0 W/m 3,5 C 3,0 C 23,2 km/h (4 Bft)
17.03.2010 18:21 10,5 C 62 % 1017,5 hPa 0,0 l/m 22,8 km/h (4 Bft) W 270 0 min 0 W/m 3,5 C 3,1 C 22,8 km/h (4 Bft)
17.03.2010 18:27 10,5 C 62 % 1017,5 hPa 0,0 l/m 24,3 km/h (4 Bft) W 265 0 min 0 W/m 3,5 C 2,7 C 24,3 km/h (4 Bft)
17.03.2010 18:32 10,4 C 63 % 1017,5 hPa 0,0 l/m 20,0 km/h (4 Bft) W 270 0 min 0 W/m 3,7 C 3,8 C 20,0 km/h (4 Bft)
17.03.2010 18:37 10,3 C 63 % 1017,5 hPa 0,0 l/m 20,5 km/h (4 Bft) W 260 0 min 0 W/m 3,6 C 3,5 C 20,5 km/h (4 Bft)
17.03.2010 18:42 10,3 C 63 % 1017,5 hPa 0,0 l/m 21,3 km/h (4 Bft) W 260 0 min 0 W/m 3,6 C 3,3 C 21,3 km/h (4 Bft)
17.03.2010 18:47 10,2 C 63 % 1017,5 hPa 0,0 l/m 20,7 km/h (4 Bft) W 280 0 min 0 W/m 3,5 C 3,3 C 20,7 km/h (4 Bft)
17.03.2010 18:52 10,1 C 64 % 1017,5 hPa 0,0 l/m 17,0 km/h (3 Bft) W 275 0 min 0 W/m 3,6 C 4,5 C 17,0 km/h (3 Bft)
17.03.2010 18:57 10,0 C 65 % 1017,5 hPa 0,0 l/m 15,1 km/h (3 Bft) W-NW 300 0 min 0 W/m 3,7 C 5,1 C 15,1 km/h (3 Bft)
17.03.2010 19:02 9,9 C 65 % 1017,5 hPa 0,0 l/m 14,9 km/h (3 Bft) W-NW 290 0 min 0 W/m 3,6 C 5,1 C 14,9 km/h (3 Bft)
17.03.2010 19:07 9,7 C 65 % 1018,5 hPa 0,0 l/m 21,6 km/h (4 Bft) W-NW 290 0 min 0 W/m 3,4 C 2,4 C 21,6 km/h (4 Bft)
17.03.2010 19:12 9,6 C 66 % 1018,5 hPa 0,0 l/m 18,4 km/h (3 Bft) W-NW 290 0 min 0 W/m 3,6 C 3,3 C 18,4 km/h (3 Bft)
17.03.2010 19:17 9,5 C 67 % 1018,5 hPa 0,0 l/m 17,4 km/h (3 Bft) NW 305 0 min 0 W/m 3,7 C 3,6 C 17,4 km/h (3 Bft)
17.03.2010 19:22 9,3 C 67 % 1018,5 hPa 0,0 l/m 14,0 km/h (3 Bft) W-NW 295 0 min 0 W/m 3,5 C 4,7 C 14,0 km/h (3 Bft)
17.03.2010 19:27 9,2 C 67 % 1018,5 hPa 0,0 l/m 14,9 km/h (3 Bft) W-NW 285 0 min 0 W/m 3,4 C 4,2 C 14,9 km/h (3 Bft)
17.03.2010 19:32 9,0 C 67 % 1018,5 hPa 0,0 l/m 21,0 km/h (4 Bft) W-NW 285 0 min 0 W/m 3,2 C 1,7 C 21,0 km/h (4 Bft)
17.03.2010 19:37 8,8 C 66 % 1018,5 hPa 0,0 l/m 24,0 km/h (4 Bft) W-NW 285 0 min 0 W/m 2,8 C 0,5 C 24,0 km/h (4 Bft)
17.03.2010 19:42 8,6 C 67 % 1018,5 hPa 0,0 l/m 24,0 km/h (4 Bft) W-NW 285 0 min 0 W/m 2,8 C 0,2 C 24,0 km/h (4 Bft)
17.03.2010 19:47 8,5 C 67 % 1018,5 hPa 0,0 l/m 22,7 km/h (4 Bft) W 275 0 min 0 W/m 2,7 C 0,5 C 22,7 km/h (4 Bft)
17.03.2010 19:52 8,5 C 67 % 1018,5 hPa 0,0 l/m 21,7 km/h (4 Bft) W-NW 285 0 min 0 W/m 2,7 C 0,8 C 21,7 km/h (4 Bft)
17.03.2010 19:56 8,4 C 67 % 1018,5 hPa 0,0 l/m 21,2 km/h (4 Bft) W-NW 290 0 min 0 W/m 2,6 C 0,8 C 21,2 km/h (4 Bft)
17.03.2010 20:02 8,4 C 67 % 1018,5 hPa 0,0 l/m 22,3 km/h (4 Bft) W-NW 295 0 min 0 W/m 2,6 C 0,5 C 22,3 km/h (4 Bft)
17.03.2010 20:07 8,4 C 67 % 1018,5 hPa 0,0 l/m 19,0 km/h (3 Bft) W-NW 290 0 min 0 W/m 2,6 C 1,6 C 19,0 km/h (3 Bft)
17.03.2010 20:12 8,2 C 67 % 1018,5 hPa 0,0 l/m 24,0 km/h (4 Bft) NW 305 0 min 0 W/m 2,4 C -0,3 C 24,0 km/h (4 Bft)
17.03.2010 20:17 8,2 C 68 % 1018,5 hPa 0,0 l/m 28,3 km/h (5 Bft) W-NW 290 0 min 0 W/m 2,7 C -1,5 C 28,3 km/h (5 Bft)
17.03.2010 20:22 8,1 C 68 % 1018,5 hPa 0,0 l/m 26,3 km/h (4 Bft) NW 305 0 min 0 W/m 2,6 C -1,1 C 26,3 km/h (4 Bft)
17.03.2010 20:27 7,9 C 68 % 1018,5 hPa 0,0 l/m 25,2 km/h (4 Bft) NW 315 0 min 0 W/m 2,4 C -1,1 C 25,2 km/h (4 Bft)
17.03.2010 20:32 7,9 C 69 % 1018,5 hPa 0,0 l/m 23,5 km/h (4 Bft) W-NW 295 0 min 0 W/m 2,6 C -0,6 C 23,5 km/h (4 Bft)
17.03.2010 20:37 7,9 C 69 % 1018,5 hPa 0,0 l/m 23,5 km/h (4 Bft) W-NW 300 0 min 0 W/m 2,6 C -0,6 C 23,5 km/h (4 Bft)
17.03.2010 20:42 7,8 C 70 % 1018,5 hPa 0,0 l/m 22,1 km/h (4 Bft) W 280 0 min 0 W/m 2,7 C -0,3 C 22,1 km/h (4 Bft)
17.03.2010 20:47 7,7 C 70 % 1018,5 hPa 0,0 l/m 24,0 km/h (4 Bft) W-NW 295 0 min 0 W/m 2,6 C -1,0 C 24,0 km/h (4 Bft)
17.03.2010 20:52 7,7 C 70 % 1018,5 hPa 0,0 l/m 22,6 km/h (4 Bft) NW 310 0 min 0 W/m 2,6 C -0,6 C 22,6 km/h (4 Bft)
17.03.2010 20:57 7,7 C 70 % 1018,5 hPa 0,0 l/m 20,5 km/h (4 Bft) W-NW 285 0 min 0 W/m 2,6 C 0,1 C 20,5 km/h (4 Bft)
17.03.2010 21:02 7,8 C 70 % 1018,5 hPa 0,0 l/m 23,7 km/h (4 Bft) W-NW 290 0 min 0 W/m 2,7 C -0,8 C 23,7 km/h (4 Bft)
17.03.2010 21:07 7,9 C 70 % 1018,5 hPa 0,0 l/m 24,2 km/h (4 Bft) W-NW 300 0 min 0 W/m 2,8 C -0,8 C 24,2 km/h (4 Bft)
17.03.2010 21:12 7,8 C 70 % 1018,5 hPa 0,0 l/m 23,6 km/h (4 Bft) W-NW 295 0 min 0 W/m 2,7 C -0,7 C 23,6 km/h (4 Bft)
17.03.2010 21:16 7,7 C 71 % 1018,5 hPa 0,0 l/m 23,2 km/h (4 Bft) NW 305 0 min 0 W/m 2,8 C -0,7 C 23,2 km/h (4 Bft)
17.03.2010 21:22 7,7 C 71 % 1018,5 hPa 0,0 l/m 14,0 km/h (3 Bft) W-NW 295 0 min 0 W/m 2,8 C 2,8 C 14,0 km/h (3 Bft)
17.03.2010 21:27 7,8 C 71 % 1018,5 hPa 0,0 l/m 15,8 km/h (3 Bft) W-NW 285 0 min 0 W/m 2,9 C 2,1 C 15,8 km/h (3 Bft)
17.03.2010 21:32 7,8 C 71 % 1018,5 hPa 0,0 l/m 17,3 km/h (3 Bft) W-NW 290 0 min 0 W/m 2,9 C 1,5 C 17,3 km/h (3 Bft)
17.03.2010 21:37 7,8 C 72 % 1018,5 hPa 0,0 l/m 20,0 km/h (4 Bft) W 275 0 min 0 W/m 3,1 C 0,4 C 20,0 km/h (4 Bft)
17.03.2010 21:41 7,8 C 72 % 1018,5 hPa 0,0 l/m 17,4 km/h (3 Bft) W-NW 295 0 min 0 W/m 3,1 C 1,4 C 17,4 km/h (3 Bft)
17.03.2010 21:47 7,8 C 72 % 1018,5 hPa 0,0 l/m 19,3 km/h (3 Bft) W-NW 290 0 min 0 W/m 3,1 C 0,7 C 19,3 km/h (3 Bft)
17.03.2010 21:52 7,8 C 72 % 1018,5 hPa 0,0 l/m 18,2 km/h (3 Bft) W-NW 285 0 min 0 W/m 3,1 C 1,1 C 18,2 km/h (3 Bft)
17.03.2010 21:57 7,8 C 72 % 1018,5 hPa 0,0 l/m 18,8 km/h (3 Bft) W-NW 285 0 min 0 W/m 3,1 C 0,9 C 18,8 km/h (3 Bft)
17.03.2010 22:02 7,8 C 72 % 1018,5 hPa 0,0 l/m 15,3 km/h (3 Bft) W-NW 285 0 min 0 W/m 3,1 C 2,3 C 15,3 km/h (3 Bft)
17.03.2010 22:07 7,8 C 72 % 1018,5 hPa 0,0 l/m 22,5 km/h (4 Bft) W-NW 285 0 min 0 W/m 3,1 C -0,4 C 22,5 km/h (4 Bft)
17.03.2010 22:12 7,8 C 72 % 1018,5 hPa 0,0 l/m 14,0 km/h (3 Bft) W 280 0 min 0 W/m 3,1 C 2,9 C 14,0 km/h (3 Bft)
17.03.2010 22:17 7,9 C 72 % 1018,5 hPa 0,0 l/m 14,8 km/h (3 Bft) W-NW 290 0 min 0 W/m 3,2 C 2,7 C 14,8 km/h (3 Bft)
17.03.2010 22:22 7,8 C 72 % 1018,5 hPa 0,0 l/m 19,3 km/h (3 Bft) W-NW 295 0 min 0 W/m 3,1 C 0,7 C 19,3 km/h (3 Bft)
17.03.2010 22:27 7,8 C 73 % 1018,5 hPa 0,0 l/m 19,8 km/h (3 Bft) W-NW 285 0 min 0 W/m 3,3 C 0,5 C 19,8 km/h (3 Bft)
17.03.2010 22:32 7,8 C 73 % 1018,5 hPa 0,0 l/m 16,5 km/h (3 Bft) W-NW 285 0 min 0 W/m 3,3 C 1,8 C 16,5 km/h (3 Bft)
17.03.2010 22:37 7,8 C 73 % 1018,5 hPa 0,0 l/m 18,5 km/h (3 Bft) NW 310 0 min 0 W/m 3,3 C 1,0 C 18,5 km/h (3 Bft)
17.03.2010 22:42 7,8 C 73 % 1018,5 hPa 0,0 l/m 21,4 km/h (4 Bft) W-NW 290 0 min 0 W/m 3,3 C -0,0 C 21,4 km/h (4 Bft)
17.03.2010 22:47 7,7 C 73 % 1018,5 hPa 0,0 l/m 19,1 km/h (3 Bft) W 280 0 min 0 W/m 3,2 C 0,6 C 19,1 km/h (3 Bft)
17.03.2010 22:52 7,6 C 73 % 1018,5 hPa 0,0 l/m 19,0 km/h (3 Bft) W 275 0 min 0 W/m 3,1 C 0,6 C 19,0 km/h (3 Bft)
17.03.2010 22:57 7,6 C 74 % 1018,5 hPa 0,0 l/m 12,6 km/h (3 Bft) W-NW 285 0 min 0 W/m 3,3 C 3,4 C 12,6 km/h (3 Bft)
17.03.2010 23:02 7,6 C 74 % 1019,5 hPa 0,0 l/m 15,3 km/h (3 Bft) W 270 0 min 0 W/m 3,3 C 2,1 C 15,3 km/h (3 Bft)
17.03.2010 23:07 7,6 C 73 % 1019,5 hPa 0,0 l/m 14,5 km/h (3 Bft) W 260 0 min 0 W/m 3,1 C 2,5 C 14,5 km/h (3 Bft)
17.03.2010 23:12 7,5 C 73 % 1019,5 hPa 0,0 l/m 9,6 km/h (2 Bft) W 275 0 min 0 W/m 3,0 C 5,1 C 9,6 km/h (2 Bft)
17.03.2010 23:17 7,5 C 73 % 1019,5 hPa 0,0 l/m 12,1 km/h (2 Bft) W 275 0 min 0 W/m 3,0 C 3,6 C 12,1 km/h (2 Bft)
17.03.2010 23:22 7,3 C 74 % 1019,5 hPa 0,0 l/m 9,2 km/h (2 Bft) W 270 0 min 0 W/m 3,0 C 5,1 C 9,2 km/h (2 Bft)
17.03.2010 23:27 7,3 C 74 % 1018,5 hPa 0,0 l/m 10,6 km/h (2 Bft) W 270 0 min 0 W/m 3,0 C 4,2 C 10,6 km/h (2 Bft)
17.03.2010 23:32 7,2 C 74 % 1018,5 hPa 0,0 l/m 8,1 km/h (2 Bft) W 265 0 min 0 W/m 2,9 C 5,8 C 8,1 km/h (2 Bft)
17.03.2010 23:37 7,2 C 74 % 1018,5 hPa 0,0 l/m 12,8 km/h (3 Bft) W-NW 285 0 min 0 W/m 2,9 C 2,8 C 12,8 km/h (3 Bft)
17.03.2010 23:42 7,2 C 75 % 1018,5 hPa 0,0 l/m 11,2 km/h (2 Bft) W 270 0 min 0 W/m 3,1 C 3,8 C 11,2 km/h (2 Bft)
17.03.2010 23:47 7,0 C 75 % 1018,5 hPa 0,0 l/m 16,0 km/h (3 Bft) W 260 0 min 0 W/m 2,9 C 1,0 C 16,0 km/h (3 Bft)
17.03.2010 23:52 6,9 C 76 % 1018,5 hPa 0,0 l/m 17,4 km/h (3 Bft) W 265 0 min 0 W/m 3,0 C 0,3 C 17,4 km/h (3 Bft)
17.03.2010 23:57 6,8 C 76 % 1018,5 hPa 0,0 l/m 15,9 km/h (3 Bft) W 260 0 min 0 W/m 2,9 C 0,8 C 15,9 km/h (3 Bft)
_ Min-Zeit 05:12 15:27 15:07 - 23:32 - - - - 00:01 04:21 23:32
Minimum _ 4,5 C 55 % 1017,5 hPa - 8,1 km/h (2 Bft) - - - - 1,9 C -6,5 C 8,1 km/h (2 Bft)
_ Max-Zeit 15:37 01:46 00:01 00:01 13:47 - - 00:01 00:01 17:22 23:32 13:47
Maximum _ 11,9 C 88 % 1022,5 hPa 0,0 l/m 34,7 km/h
W-SW (5 Bft)
- - 0 min 0 W/m 4,0 C 5,8 C 34,7 km/h
W-SW (5 Bft)
Durchschnitt _ 7,6 C 74 % 1019,6 hPa #0,0 l/m 21,4 km/h (4 Bft) W-SW - #0 min. 0 W/m 3,1 C 0,0 C 21,4 km/h (4 Bft)
copyright by Holger Just